Corpus Christi, TX

04:05 CDT le 31 octobre 2014 (GMT -0500)
Corpus Christi International | Change Station
CLOSE
Current Station
Aéroport
Location: Corpus Christi,
Altitude: 43 ft
Stations météo à proximité

Alt. 43 ft 27.77 °N, 97.51 °W | Updated 14 minutes ago

Ciel dégagé
Ciel dégagé
69 ° F
Paraît 69 ° F
N
0
Vent Variable Vent de Nord

Aujourd'hui
Haut(e) -- | Bas -- ° F
--% Risque de précip.
Hier
Haut(e) -- | Bas -- ° F
Precip. -- pouce
7:40 AM 6:46 PM
Premier quartier, 53% visible
Pression 30.05 pouce
Visibilité 10.0 Miles terrestres
Nuages Peu 1300 ft
Peu 25000 ft
Point de rosée 67 ° F
Humidité 93%
Précipitations 0.00 pouce
Profondeur de la couche neigeuse Non disponible.
UV 0 sur 12
Pollen 4.20 sur 12
Qualité de l'air Non disponible.
Flu Activity Non disponible.
METAR KCRP 310851Z 00000KT 10SM FEW013 FEW250 21/19 A3005 RMK AO2 SLP176 T02060194 58006

More Conditions Fewer Conditions

Pression 30.05 pouce
Visibilité 10.0 Miles terrestres
Nuages Peu 1300 ft
Peu 25000 ft
Point de rosée 67 ° F
Humidité 93%
Précipitations 0.00 pouce
Profondeur de la couche neigeuse Non disponible.
UV 0 sur 12
Pollen 4.20 sur 12
Qualité de l'air Non disponible.
Flu Activity Non disponible.
METAR KCRP 310851Z 00000KT 10SM FEW013 FEW250 21/19 A3005 RMK AO2 SLP176 T02060194 58006

More Conditions Fewer Conditions

Nowcast | as of 2:52 am CDT on October 31, 2014

Patchy fog will be develop over the inland coastal Bend north to the Victoria Crossroads through 430 am. The fog will reduce visibilities to less than 3 miles at times. Isolated dense fog will be possible from Beeville to Alice to Hebbronville with visibilities falling to around a quarter of a mile at times. Motorists traveling across the region early this morning should drive with appropriate caution in regions of reduced visibility.

×

10-Day Weather Forecast

Almanac

Astronomie

Oct. 31, 2014 Lever Coucher
Temps réel
Crépuscule civil
Crépuscule nautique
Crépuscule astronomique
Lune
Durée de lumière visible
Longueur du jour
Tomorrow will be .
, % of the Moon is Illuminated

Extrêmes aujourd'hui

State Highs State Lows

Community

WunderPhotos

Upload Photos

1,766,573 Photos téléchargées !

WunderBlogs® & News

Nearby

Qualité de l'air

  Qualité de l'air Indice de la qualité de l'air Polluant
Not available.

Épaisseur de neige

Station Depth Altitude

Activité sismique

Ville Distance Mag. Time & Date
Minimum magnitude displayed is 2.5.

Températures des eaux côtières

Lieu Température

Stations météo à proximité